< < Back
Terminal Aerodrome Forecast


Current Version              Previous Versions:   1  2  3  4  5  6  7  8  9  

Terminal Aerodrome Forecast

798
FTUS42 KILM 161100 CCA
TAFILM
TAF COR
KILM 161141Z 1612/1712 00000KT P6SM VCSH FEW006 BKN020
     FM161500 04004KT P6SM BKN020 BKN100
     FM161800 14006KT P6SM VCSH SCT035 BKN250
     FM170800 03004KT 4SM BR BKN010=



Latest METAR

464
SAUS70 KWBC 162300 RRN
MTRILM
METAR KILM 162253Z 16005KT 10SM BKN035 26/22 A2995 RMK AO2 SLP142
T02560217


USA.gov is the U.S. government's official web portal to all federal, state and local government web resources and services.